SBOSBO RUH / OERK
Speedbird OnlineSpeedbird Online RUH / OERK

King Khaled International Airport
09:41 14°C

Location Riyadh, Saudi Arabia
Latitude: 24.957599639892578
Longitude: 46.69879913330078
Web Wikipedia
Altitude 625 Meter / 2049 Feet
Distance 4,904 KM / 3,047 Miles
from London.
Time Zone UTC +3 hours (Asia/Riyadh)
Codes IATA: RUH
ICAO: OERK
Currency £1 equals SAR 4.65
Runways
RunwayLength (m)Surface
15L4205Asphalt
15R4205Asphalt
33L4205Asphalt
33R4205Asphalt
Radio
TypeDescriptionFrequency
APPRIYADH APP120
ATISATIS127.15
Ctrl126
GNDGND121.6
TWRTWR118.6
Live ATC
METAR OERK 290600Z 21002KT CAVOK 14/07 Q1021 NOSIG
TAF TAF OERK 290500Z 2906/3012 21012KT CAVOK BECMG 2918/2920 VRB03KT BECMG 2922/3000 21012KT
Weather As Of 29 Jan 2023 09:41
Description Clear sky
Wind 4 km/h from South-West (210°)
Cloud Cover 0%
Precipitation Rain: none, Snow: none
Sunrise 06:37
Sunset 17:35
Lounges Premier Lounge- TEMPORARILY CLOSED, Terminal 1
Wellcome Lounge, Terminal 2
Rotations During the last 90 days there were
87 flights from LHR
86 flights to LHR



Support Speedbird Online

© 2017-2023 Speedbird Online